Terminal Aerodrome Forecast
Issued by NWS

Home | Current Version | Previous Version | Text Only | Print | Product List | Glossary Off
Versions: 1 2 3 4 5 6 7 8 9 10 11 12 13 14

527
FTUS45 KGGW 180841 AAA
TAFSDY
TAF AMD
KSDY 180841Z 1809/1906 32015KT P6SM BKN200 WS020/32040KT
     FM181200 29014KT P6SM FEW150
     FM190200 19004KT P6SM FEW150=

USA.gov is the U.S. government's official web portal to all federal, state and local government web resources and services.